Overview Statistics Trail Chart Weather Telemetry Raw packets
 

This is the latest recevied packets stored in our database for station/object IQ5ARI-13. If no packets are shown the sender has not sent any packets the latest 24 hours.

If you compare the raw packets with similar data from other websites it may differ (especially the path), the reason is that we are not collecting packets from the same APRS-IS servers. Each APRS-IS server performes duplicate filtering, and which packet that is considered to be a duplicate may differ depending on which APRS-IS server you receive your data from.

<< 1 2 3 4 >>

1788574899: IQ5ARI-13>APRSMC,TCPIP*,qAR,IQ5ARI-15:T#666,912.3,17.9,66.1,1023.5,0.0,00000000

1788574899: IQ5ARI-13>APRSMC,TCPIP*,qAR,IQ5ARI-15:!4328.20N/01158.62E#ARI-RE Arezzo#IQ5ARI-13/B=100/A=003192/N15

1788573028: IQ5ARI-13>APRSMC,TCPIP*,qAR,IQ5ARI-15:T#665,912.5,18.4,64.4,1023.5,0.0,00000000

1788573028: IQ5ARI-13>APRSMC,TCPIP*,qAR,IQ5ARI-15:!4328.20N/01158.62E#ARI-RE Arezzo#IQ5ARI-13/B=100/A=003192/N15

1788571198: IQ5ARI-13>APRSMC,TCPIP*,qAR,IQ5ARI-15:T#664,912.5,17.9,67.4,1023.7,0.0,00000000

1788571198: IQ5ARI-13>APRSMC,TCPIP*,qAR,IQ5ARI-15:!4328.20N/01158.62E#ARI-RE Arezzo#IQ5ARI-13/B=100/A=003192/N16

1788569371: IQ5ARI-13>APRSMC,TCPIP*,qAR,IQ5ARI-15:T#663,912.5,18.9,62.0,1023.3,0.0,00000000

1788569371: IQ5ARI-13>APRSMC,TCPIP*,qAR,IQ5ARI-15:!4328.20N/01158.62E#ARI-RE Arezzo#IQ5ARI-13/B=100/A=003192/N17

1788567660: IQ5ARI-13>APRSMC,TCPIP*,qAR,IU5SGO-10:T#662,912.7,19.3,56.4,1023.4,0.0,00000000

1788567660: IQ5ARI-13>APRSMC,TCPIP*,qAR,IU5SGO-10:!4328.20N/01158.62E#ARI-RE Arezzo#IQ5ARI-13/B=100/A=003192/N16

1788565740: IQ5ARI-13>APRSMC,TCPIP*,qAR,IU5SGO-10::IQ5ARI-13:PARM.Press,Temp.in,Hum,QNH,Temp.out,track,-,-,-,-,-,-,-

1788565740: IQ5ARI-13>APRSMC,TCPIP*,qAR,IU5SGO-10::IQ5ARI-13:EQNS.0,1,0,0,1,0,0,1,0,0,1,0,0,1,0

1788565740: IQ5ARI-13>APRSMC,TCPIP*,qAR,IU5SGO-10:T#661,912.9,19.4,55.4,1023.6,0.0,00000000

1788565740: IQ5ARI-13>APRSMC,TCPIP*,qAR,IU5SGO-10::IQ5ARI-13:UNIT.hPa,C deg,%,hPa,C deg,Y/N,O/N,O/N,O/N,O/N,O/N,O/N,O/N

1788565740: IQ5ARI-13>APRSMC,TCPIP*,qAR,IU5SGO-10:!4328.20N/01158.62E#ARI-RE Arezzo#IQ5ARI-13/B=100/A=003192/N17

1788563902: IQ5ARI-13>APRSMC,TCPIP*,qAR,IQ5ARI-15:T#660,913.0,20.1,51.4,1023.4,0.0,00000000

1788563902: IQ5ARI-13>APRSMC,TCPIP*,qAR,IQ5ARI-15:!4328.20N/01158.62E#ARI-RE Arezzo#IQ5ARI-13/B=100/A=003192/N17

1788562076: IQ5ARI-13>APRSMC,TCPIP*,qAR,IU5SGO-10:T#659,913.0,20.3,50.2,1023.3,0.0,00000000

1788562076: IQ5ARI-13>APRSMC,TCPIP*,qAR,IU5SGO-10:!4328.20N/01158.62E#ARI-RE Arezzo#IQ5ARI-13/B=100/A=003192/N16

1788560263: IQ5ARI-13>APRSMC,TCPIP*,qAR,IU5SGO-10:T#658,913.1,20.4,48.8,1023.4,0.0,00000000

1788560263: IQ5ARI-13>APRSMC,TCPIP*,qAR,IU5SGO-10:!4328.20N/01158.62E#ARI-RE Arezzo#IQ5ARI-13/B=100/A=003192/N16

1788558441: IQ5ARI-13>APRSMC,TCPIP*,qAR,IQ5ARI-15:T#657,913.2,20.4,50.1,1023.5,0.0,00000000

1788558441: IQ5ARI-13>APRSMC,TCPIP*,qAR,IQ5ARI-15:!4328.20N/01158.62E#ARI-RE Arezzo#IQ5ARI-13/B=100/A=003192/N16

1788556580: IQ5ARI-13>APRSMC,TCPIP*,qAR,IU5SGO-10:T#656,913.1,20.6,49.5,1023.3,0.0,00000000

1788556580: IQ5ARI-13>APRSMC,TCPIP*,qAR,IU5SGO-10:!4328.20N/01158.62E#ARI-RE Arezzo#IQ5ARI-13/B=100/A=003192/N16